sensor_id;sensor_type;location;lat;lon;timestamp;pressure;altitude;pressure_sealevel;temperature;humidity
46199;BME280;31928;52.104;10.030;2023-10-13T18:08:11;99303.16;;;26.01;44.57
46199;BME280;31928;52.104;10.030;2023-10-13T18:10:38;99299.72;;;26.04;45.19
46199;BME280;31928;52.104;10.030;2023-10-13T18:13:10;99289.88;;;26.03;44.15
46199;BME280;31928;52.104;10.030;2023-10-13T18:15:37;99310.38;;;26.05;45.11
46199;BME280;31928;52.104;10.030;2023-10-13T18:18:04;99301.34;;;26.05;44.57
46199;BME280;31928;52.104;10.030;2023-10-13T18:20:32;99308.16;;;25.99;44.05
46199;BME280;31928;52.104;10.030;2023-10-13T18:22:59;99292.63;;;26.03;44.53
46199;BME280;31928;52.104;10.030;2023-10-13T18:25:26;99293.28;;;26.00;43.76
46199;BME280;31928;52.104;10.030;2023-10-13T18:27:55;99291.47;;;26.04;44.56
46199;BME280;31928;52.104;10.030;2023-10-13T18:30:22;99281.75;;;26.06;44.85
46199;BME280;31928;52.104;10.030;2023-10-13T18:32:49;99287.59;;;26.05;44.49
46199;BME280;31928;52.104;10.030;2023-10-13T18:35:16;99298.09;;;26.03;43.85
46199;BME280;31928;52.104;10.030;2023-10-13T18:37:45;99289.22;;;26.06;44.73
46199;BME280;31928;52.104;10.030;2023-10-13T18:40:12;99281.75;;;26.06;44.75
46199;BME280;31928;52.104;10.030;2023-10-13T18:42:39;99270.63;;;26.03;43.49
46199;BME280;31928;52.104;10.030;2023-10-13T18:45:10;99278.22;;;26.06;44.22
46199;BME280;31928;52.104;10.030;2023-10-13T18:47:37;99265.97;;;26.04;43.80
46199;BME280;31928;52.104;10.030;2023-10-13T18:50:03;99273.06;;;26.05;44.39
46199;BME280;31928;52.104;10.030;2023-10-13T18:52:31;99261.25;;;26.04;44.37
46199;BME280;31928;52.104;10.030;2023-10-13T18:54:58;99259.31;;;26.05;44.46
46199;BME280;31928;52.104;10.030;2023-10-13T18:57:25;99249.13;;;26.05;44.52
46199;BME280;31928;52.104;10.030;2023-10-13T18:59:54;99251.31;;;26.00;43.97
46199;BME280;31928;52.104;10.030;2023-10-13T19:02:21;99251.31;;;26.00;43.44
46199;BME280;31928;52.104;10.030;2023-10-13T19:04:49;99243.84;;;26.00;43.97
46199;BME280;31928;52.104;10.030;2023-10-13T19:07:15;99239.97;;;26.01;44.45
46199;BME280;31928;52.104;10.030;2023-10-13T19:09:42;99239.16;;;26.01;44.32
46199;BME280;31928;52.104;10.030;2023-10-13T19:12:10;99247.72;;;25.99;44.00
46199;BME280;31928;52.104;10.030;2023-10-13T19:14:37;99239.69;;;25.94;43.02
46199;BME280;31928;52.104;10.030;2023-10-13T19:17:05;99239.03;;;25.97;44.26
46199;BME280;31928;52.104;10.030;2023-10-13T19:19:31;99234.34;;;25.98;44.14
46199;BME280;31928;52.104;10.030;2023-10-13T19:22:01;99228.84;;;25.98;44.01
46199;BME280;31928;52.104;10.030;2023-10-13T19:24:27;99224.19;;;25.98;44.59
46199;BME280;31928;52.104;10.030;2023-10-13T19:26:55;99231.25;;;25.99;44.64
46199;BME280;31928;52.104;10.030;2023-10-13T19:29:22;99228.41;;;25.96;44.29
46199;BME280;31928;52.104;10.030;2023-10-13T19:31:49;99225.66;;;25.96;44.11
46199;BME280;31928;52.104;10.030;2023-10-13T19:34:16;99242.13;;;25.96;44.30
46199;BME280;31928;52.104;10.030;2023-10-13T19:36:45;99234.22;;;25.94;44.09
46199;BME280;31928;52.104;10.030;2023-10-13T19:39:12;99222.44;;;25.94;44.72
46199;BME280;31928;52.104;10.030;2023-10-13T19:41:45;99217.28;;;25.92;44.51
46199;BME280;31928;52.104;10.030;2023-10-13T19:44:12;99221.16;;;25.91;44.51
46199;BME280;31928;52.104;10.030;2023-10-13T19:46:41;99201.00;;;25.87;44.83
46199;BME280;31928;52.104;10.030;2023-10-13T19:49:08;99206.03;;;25.85;44.57
46199;BME280;31928;52.104;10.030;2023-10-13T19:51:34;99199.88;;;25.76;44.21
46199;BME280;31928;52.104;10.030;2023-10-13T19:54:02;99201.44;;;25.77;44.57
46199;BME280;31928;52.104;10.030;2023-10-13T19:56:29;99198.91;;;25.72;44.77
46199;BME280;31928;52.104;10.030;2023-10-13T19:58:58;99211.91;;;25.63;44.71
46199;BME280;31928;52.104;10.030;2023-10-13T20:01:28;99215.13;;;25.65;45.20
46199;BME280;31928;52.104;10.030;2023-10-13T20:04:00;99208.69;;;25.61;45.15
46199;BME280;31928;52.104;10.030;2023-10-13T20:06:28;99210.03;;;25.55;45.45
46199;BME280;31928;52.104;10.030;2023-10-13T20:08:55;99203.63;;;25.51;45.31
46199;BME280;31928;52.104;10.030;2023-10-13T20:11:35;99205.00;;;25.45;45.43
46199;BME280;31928;52.104;10.030;2023-10-13T20:14:01;99203.25;;;25.41;45.46
46199;BME280;31928;52.104;10.030;2023-10-13T20:16:28;99192.47;;;25.36;45.58
46199;BME280;31928;52.104;10.030;2023-10-13T20:18:57;99186.06;;;25.32;45.64
46199;BME280;31928;52.104;10.030;2023-10-13T20:21:24;99192.56;;;25.28;45.73
46199;BME280;31928;52.104;10.030;2023-10-13T20:23:51;99186.00;;;25.20;45.98
46199;BME280;31928;52.104;10.030;2023-10-13T20:26:18;99201.53;;;25.16;45.93
46199;BME280;31928;52.104;10.030;2023-10-13T20:28:45;99188.81;;;25.12;45.89
46199;BME280;31928;52.104;10.030;2023-10-13T20:31:11;99186.28;;;25.07;46.30
46199;BME280;31928;52.104;10.030;2023-10-13T20:33:39;99193.22;;;25.04;46.57
46199;BME280;31928;52.104;10.030;2023-10-13T20:36:10;99185.75;;;24.93;46.52
46199;BME280;31928;52.104;10.030;2023-10-13T20:38:36;99191.00;;;24.98;46.56
46199;BME280;31928;52.104;10.030;2023-10-13T20:41:04;99154.41;;;24.94;46.20
46199;BME280;31928;52.104;10.030;2023-10-13T20:43:34;99173.16;;;24.92;46.53
46199;BME280;31928;52.104;10.030;2023-10-13T20:46:03;99155.97;;;24.83;46.77
46199;BME280;31928;52.104;10.030;2023-10-13T20:48:30;99153.22;;;24.83;46.39
46199;BME280;31928;52.104;10.030;2023-10-13T20:51:00;99139.03;;;24.81;46.42
46199;BME280;31928;52.104;10.030;2023-10-13T20:53:27;99152.94;;;24.76;46.76
46199;BME280;31928;52.104;10.030;2023-10-13T20:55:58;99133.28;;;24.74;46.67
46199;BME280;31928;52.104;10.030;2023-10-13T20:58:25;99122.03;;;24.67;47.12
46199;BME280;31928;52.104;10.030;2023-10-13T21:00:52;99122.03;;;24.67;47.01
46199;BME280;31928;52.104;10.030;2023-10-13T21:03:23;99127.53;;;24.67;47.11
46199;BME280;31928;52.104;10.030;2023-10-13T21:05:50;99109.50;;;24.66;46.75
46199;BME280;31928;52.104;10.030;2023-10-13T21:08:17;99111.75;;;24.64;46.96
46199;BME280;31928;52.104;10.030;2023-10-13T21:10:43;99098.38;;;24.63;47.21
46199;BME280;31928;52.104;10.030;2023-10-13T21:13:11;99096.00;;;24.61;46.88
46199;BME280;31928;52.104;10.030;2023-10-13T21:15:38;99094.38;;;24.60;47.09
46199;BME280;31928;52.104;10.030;2023-10-13T21:18:05;99096.00;;;24.61;46.87
46199;BME280;31928;52.104;10.030;2023-10-13T21:20:35;99088.91;;;24.60;47.30
46199;BME280;31928;52.104;10.030;2023-10-13T21:23:04;99076.31;;;24.59;47.26
46199;BME280;31928;52.104;10.030;2023-10-13T21:25:40;99091.16;;;24.58;47.31
46199;BME280;31928;52.104;10.030;2023-10-13T21:28:09;99078.94;;;24.56;47.31
46199;BME280;31928;52.104;10.030;2023-10-13T21:30:38;99074.25;;;24.56;47.10
46199;BME280;31928;52.104;10.030;2023-10-13T21:33:06;99072.66;;;24.55;46.88
46199;BME280;31928;52.104;10.030;2023-10-13T21:35:34;99089.28;;;24.50;47.04
46199;BME280;31928;52.104;10.030;2023-10-13T21:38:03;99088.66;;;24.53;47.40
46199;BME280;31928;52.104;10.030;2023-10-13T21:40:30;99086.22;;;24.52;47.01
46199;BME280;31928;52.104;10.030;2023-10-13T21:42:57;99079.25;;;24.54;47.06
46199;BME280;31928;52.104;10.030;2023-10-13T21:45:24;99075.25;;;24.52;47.45
46199;BME280;31928;52.104;10.030;2023-10-13T21:47:51;99073.78;;;24.54;47.23
46199;BME280;31928;52.104;10.030;2023-10-13T21:50:18;99078.31;;;24.50;47.43
46199;BME280;31928;52.104;10.030;2023-10-13T21:52:47;99082.00;;;24.54;47.01
46199;BME280;31928;52.104;10.030;2023-10-13T21:55:15;99083.94;;;24.54;47.17
46199;BME280;31928;52.104;10.030;2023-10-13T21:57:45;99085.91;;;24.53;47.43
46199;BME280;31928;52.104;10.030;2023-10-13T22:00:13;99081.75;;;24.47;47.22
46199;BME280;31928;52.104;10.030;2023-10-13T22:03:01;99083.47;;;24.52;47.41
46199;BME280;31928;52.104;10.030;2023-10-13T22:05:27;99079.16;;;24.51;47.55
46199;BME280;31928;52.104;10.030;2023-10-13T22:07:58;99089.97;;;24.47;47.25
46199;BME280;31928;52.104;10.030;2023-10-13T22:10:25;99096.13;;;24.44;47.79
46199;BME280;31928;52.104;10.030;2023-10-13T22:12:51;99078.88;;;24.44;47.55
46199;BME280;31928;52.104;10.030;2023-10-13T22:15:21;99081.50;;;24.40;47.89
46199;BME280;31928;52.104;10.030;2023-10-13T22:17:48;99073.44;;;24.35;48.20
46199;BME280;31928;52.104;10.030;2023-10-13T22:20:14;99077.50;;;24.29;48.55
46199;BME280;31928;52.104;10.030;2023-10-13T22:22:41;99077.00;;;24.27;48.34
46199;BME280;31928;52.104;10.030;2023-10-13T22:25:09;99061.59;;;24.23;48.48
46199;BME280;31928;52.104;10.030;2023-10-13T22:27:42;99045.34;;;24.18;48.82
46199;BME280;31928;52.104;10.030;2023-10-13T22:30:13;99046.03;;;24.15;48.69
46199;BME280;31928;52.104;10.030;2023-10-13T22:32:48;99034.47;;;24.10;48.95
46199;BME280;31928;52.104;10.030;2023-10-13T22:35:16;99052.22;;;24.04;48.89
46199;BME280;31928;52.104;10.030;2023-10-13T22:37:51;99046.47;;;23.97;49.19
46199;BME280;31928;52.104;10.030;2023-10-13T22:40:17;99040.84;;;23.93;48.80
46199;BME280;31928;52.104;10.030;2023-10-13T22:42:44;99041.38;;;23.87;49.48
46199;BME280;31928;52.104;10.030;2023-10-13T22:45:14;99045.41;;;23.81;49.37
46199;BME280;31928;52.104;10.030;2023-10-13T22:47:50;99027.56;;;23.75;50.16
46199;BME280;31928;52.104;10.030;2023-10-13T22:50:17;99029.34;;;23.71;49.46
46199;BME280;31928;52.104;10.030;2023-10-13T22:52:45;99032.28;;;23.66;49.40
46199;BME280;31928;52.104;10.030;2023-10-13T22:55:11;99028.44;;;23.58;50.72
46199;BME280;31928;52.104;10.030;2023-10-13T22:57:47;99023.63;;;23.56;49.89
46199;BME280;31928;52.104;10.030;2023-10-13T23:00:17;99024.13;;;23.49;50.82
46199;BME280;31928;52.104;10.030;2023-10-13T23:02:46;99027.53;;;23.46;50.15
46199;BME280;31928;52.104;10.030;2023-10-13T23:05:16;99022.25;;;23.41;50.17
46199;BME280;31928;52.104;10.030;2023-10-13T23:08:10;99021.94;;;23.34;50.30
46199;BME280;31928;52.104;10.030;2023-10-13T23:10:46;99016.00;;;23.32;50.73
46199;BME280;31928;52.104;10.030;2023-10-13T23:13:13;99000.25;;;23.29;50.85
46199;BME280;31928;52.104;10.030;2023-10-13T23:15:47;98992.72;;;23.26;50.14
46199;BME280;31928;52.104;10.030;2023-10-13T23:18:15;98999.97;;;23.22;51.50
46199;BME280;31928;52.104;10.030;2023-10-13T23:20:42;98984.69;;;23.21;50.21
46199;BME280;31928;52.104;10.030;2023-10-13T23:23:10;98972.47;;;23.19;50.24
46199;BME280;31928;52.104;10.030;2023-10-13T23:25:39;98971.97;;;23.17;50.66
46199;BME280;31928;52.104;10.030;2023-10-13T23:28:10;98958.63;;;23.15;50.08
46199;BME280;31928;52.104;10.030;2023-10-13T23:30:55;98965.41;;;23.09;51.25
46199;BME280;31928;52.104;10.030;2023-10-13T23:33:22;98962.22;;;23.07;50.99
46199;BME280;31928;52.104;10.030;2023-10-13T23:35:50;98970.59;;;23.02;51.95
46199;BME280;31928;52.104;10.030;2023-10-13T23:38:17;98952.56;;;23.01;51.58
46199;BME280;31928;52.104;10.030;2023-10-13T23:40:44;98950.97;;;23.00;51.35
46199;BME280;31928;52.104;10.030;2023-10-13T23:43:12;98936.84;;;22.98;51.32
46199;BME280;31928;52.104;10.030;2023-10-13T23:45:55;98923.31;;;22.94;52.28
46199;BME280;31928;52.104;10.030;2023-10-13T23:48:27;98929.28;;;22.96;51.31
46199;BME280;31928;52.104;10.030;2023-10-13T23:50:54;98921.06;;;22.96;50.88
46199;BME280;31928;52.104;10.030;2023-10-13T23:53:24;98926.06;;;22.94;51.23
46199;BME280;31928;52.104;10.030;2023-10-13T23:56:08;98909.03;;;22.88;51.73
46199;BME280;31928;52.104;10.030;2023-10-13T23:58:39;98907.59;;;22.91;50.92
